sensor_id;sensor_type;location;lat;lon;timestamp;temperature;humidity
66257;DHT22;53049;43.446;3.698;2022-10-18T06:50:37;19.10;99.90
66257;DHT22;53049;43.446;3.698;2022-10-18T06:53:03;19.20;99.90
66257;DHT22;53049;43.446;3.698;2022-10-18T06:55:30;19.20;99.90
66257;DHT22;53049;43.446;3.698;2022-10-18T06:57:56;19.20;99.90
66257;DHT22;53049;43.446;3.698;2022-10-18T07:00:22;19.20;99.90
66257;DHT22;53049;43.446;3.698;2022-10-18T07:02:47;19.20;99.90
66257;DHT22;53049;43.446;3.698;2022-10-18T07:05:13;19.20;99.90
66257;DHT22;53049;43.446;3.698;2022-10-18T07:07:39;19.30;99.90
66257;DHT22;53049;43.446;3.698;2022-10-18T07:10:05;19.30;99.90
66257;DHT22;53049;43.446;3.698;2022-10-18T07:12:31;19.30;99.90
66257;DHT22;53049;43.446;3.698;2022-10-18T07:14:57;19.30;99.90
66257;DHT22;53049;43.446;3.698;2022-10-18T07:17:23;19.30;99.90
66257;DHT22;53049;43.446;3.698;2022-10-18T07:19:49;19.30;99.90
66257;DHT22;53049;43.446;3.698;2022-10-18T07:22:14;19.30;99.90
66257;DHT22;53049;43.446;3.698;2022-10-18T07:24:40;19.30;99.90
66257;DHT22;53049;43.446;3.698;2022-10-18T07:27:06;19.30;99.90
66257;DHT22;53049;43.446;3.698;2022-10-18T07:29:32;19.30;99.90
66257;DHT22;53049;43.446;3.698;2022-10-18T07:31:58;19.30;99.90
66257;DHT22;53049;43.446;3.698;2022-10-18T07:34:24;19.30;99.90
66257;DHT22;53049;43.446;3.698;2022-10-18T07:36:49;19.40;99.90
66257;DHT22;53049;43.446;3.698;2022-10-18T07:39:15;19.30;99.90
66257;DHT22;53049;43.446;3.698;2022-10-18T07:41:41;19.30;99.90
66257;DHT22;53049;43.446;3.698;2022-10-18T07:44:07;19.30;99.90
66257;DHT22;53049;43.446;3.698;2022-10-18T07:46:32;19.30;99.90
66257;DHT22;53049;43.446;3.698;2022-10-18T07:48:58;19.30;99.90
66257;DHT22;53049;43.446;3.698;2022-10-18T07:51:24;19.30;99.90
66257;DHT22;53049;43.446;3.698;2022-10-18T07:53:50;19.40;99.90
66257;DHT22;53049;43.446;3.698;2022-10-18T07:56:18;19.40;99.90
66257;DHT22;53049;43.446;3.698;2022-10-18T07:58:47;19.40;99.90
66257;DHT22;53049;43.446;3.698;2022-10-18T08:01:14;19.40;99.90
66257;DHT22;53049;43.446;3.698;2022-10-18T08:03:40;19.50;99.90
66257;DHT22;53049;43.446;3.698;2022-10-18T08:06:08;19.40;99.90
66257;DHT22;53049;43.446;3.698;2022-10-18T08:08:35;19.50;99.90
66257;DHT22;53049;43.446;3.698;2022-10-18T08:11:16;19.50;99.90
66257;DHT22;53049;43.446;3.698;2022-10-18T08:13:42;19.50;99.90
66257;DHT22;53049;43.446;3.698;2022-10-18T08:16:11;19.50;99.90
66257;DHT22;53049;43.446;3.698;2022-10-18T08:18:37;19.50;99.90
66257;DHT22;53049;43.446;3.698;2022-10-18T08:21:05;19.50;99.90
66257;DHT22;53049;43.446;3.698;2022-10-18T08:23:31;19.50;99.90
66257;DHT22;53049;43.446;3.698;2022-10-18T08:26:03;19.50;99.90
66257;DHT22;53049;43.446;3.698;2022-10-18T08:28:29;19.50;99.90
66257;DHT22;53049;43.446;3.698;2022-10-18T08:30:54;19.50;99.90
66257;DHT22;53049;43.446;3.698;2022-10-18T08:33:20;19.50;99.90
66257;DHT22;53049;43.446;3.698;2022-10-18T08:35:56;19.50;99.90
66257;DHT22;53049;43.446;3.698;2022-10-18T08:38:22;19.60;99.90
66257;DHT22;53049;43.446;3.698;2022-10-18T08:40:48;19.60;99.90
66257;DHT22;53049;43.446;3.698;2022-10-18T08:45:53;19.70;99.90
66257;DHT22;53049;43.446;3.698;2022-10-18T08:48:29;19.60;99.90
66257;DHT22;53049;43.446;3.698;2022-10-18T08:50:57;19.60;99.90
66257;DHT22;53049;43.446;3.698;2022-10-18T08:53:33;19.70;99.90
66257;DHT22;53049;43.446;3.698;2022-10-18T08:56:05;19.80;99.90
66257;DHT22;53049;43.446;3.698;2022-10-18T08:58:36;19.90;99.90
66257;DHT22;53049;43.446;3.698;2022-10-18T09:07:11;20.20;99.80
66257;DHT22;53049;43.446;3.698;2022-10-18T09:12:30;20.10;99.80
66257;DHT22;53049;43.446;3.698;2022-10-18T09:23:47;20.20;99.30
66257;DHT22;53049;43.446;3.698;2022-10-18T09:29:07;20.30;99.50
66257;DHT22;53049;43.446;3.698;2022-10-18T09:34:45;20.10;99.00
66257;DHT22;53049;43.446;3.698;2022-10-18T09:37:15;20.10;99.10
66257;DHT22;53049;43.446;3.698;2022-10-18T09:39:42;20.20;99.30
66257;DHT22;53049;43.446;3.698;2022-10-18T09:42:18;20.20;98.60
66257;DHT22;53049;43.446;3.698;2022-10-18T09:44:57;20.30;99.00
66257;DHT22;53049;43.446;3.698;2022-10-18T09:47:33;20.30;98.70
66257;DHT22;53049;43.446;3.698;2022-10-18T09:50:07;20.20;98.60
66257;DHT22;53049;43.446;3.698;2022-10-18T09:52:50;20.30;98.80
66257;DHT22;53049;43.446;3.698;2022-10-18T09:55:27;20.30;98.50
66257;DHT22;53049;43.446;3.698;2022-10-18T09:57:58;20.30;98.00
66257;DHT22;53049;43.446;3.698;2022-10-18T10:00:28;20.20;98.10
66257;DHT22;53049;43.446;3.698;2022-10-18T10:02:56;20.20;98.50
66257;DHT22;53049;43.446;3.698;2022-10-18T10:05:23;20.20;98.10
66257;DHT22;53049;43.446;3.698;2022-10-18T10:07:48;20.20;98.30
66257;DHT22;53049;43.446;3.698;2022-10-18T10:10:29;20.10;98.60
66257;DHT22;53049;43.446;3.698;2022-10-18T10:13:14;20.20;98.40
66257;DHT22;53049;43.446;3.698;2022-10-18T10:16:01;20.20;98.30
66257;DHT22;53049;43.446;3.698;2022-10-18T10:18:35;20.20;98.20
66257;DHT22;53049;43.446;3.698;2022-10-18T10:21:04;20.20;98.30
66257;DHT22;53049;43.446;3.698;2022-10-18T10:23:44;20.20;98.10
66257;DHT22;53049;43.446;3.698;2022-10-18T10:26:31;20.30;98.10
66257;DHT22;53049;43.446;3.698;2022-10-18T10:28:57;20.20;97.80
66257;DHT22;53049;43.446;3.698;2022-10-18T10:36:49;20.20;98.20
66257;DHT22;53049;43.446;3.698;2022-10-18T10:39:17;20.10;97.80
66257;DHT22;53049;43.446;3.698;2022-10-18T10:42:02;20.10;98.30
66257;DHT22;53049;43.446;3.698;2022-10-18T10:44:30;20.10;98.60
66257;DHT22;53049;43.446;3.698;2022-10-18T10:46:56;20.20;98.70
66257;DHT22;53049;43.446;3.698;2022-10-18T10:49:42;20.20;98.50
66257;DHT22;53049;43.446;3.698;2022-10-18T10:52:19;20.20;98.70
66257;DHT22;53049;43.446;3.698;2022-10-18T10:54:45;20.20;98.50
66257;DHT22;53049;43.446;3.698;2022-10-18T10:59:55;20.30;98.30
66257;DHT22;53049;43.446;3.698;2022-10-18T11:02:22;20.30;98.30
66257;DHT22;53049;43.446;3.698;2022-10-18T11:04:52;20.30;98.30
66257;DHT22;53049;43.446;3.698;2022-10-18T11:07:28;20.40;98.20
66257;DHT22;53049;43.446;3.698;2022-10-18T11:20:42;20.40;98.30
66257;DHT22;53049;43.446;3.698;2022-10-18T11:23:14;20.40;98.00
66257;DHT22;53049;43.446;3.698;2022-10-18T11:39:22;20.40;97.60
66257;DHT22;53049;43.446;3.698;2022-10-18T11:42:02;20.50;98.00
66257;DHT22;53049;43.446;3.698;2022-10-18T11:44:37;20.50;97.60
66257;DHT22;53049;43.446;3.698;2022-10-18T11:47:10;20.50;97.20
66257;DHT22;53049;43.446;3.698;2022-10-18T11:55:18;20.70;97.30
66257;DHT22;53049;43.446;3.698;2022-10-18T12:00:47;20.80;97.10
66257;DHT22;53049;43.446;3.698;2022-10-18T12:06:18;20.80;96.90
66257;DHT22;53049;43.446;3.698;2022-10-18T12:08:48;20.80;97.10
66257;DHT22;53049;43.446;3.698;2022-10-18T12:11:21;20.70;97.30
66257;DHT22;53049;43.446;3.698;2022-10-18T12:13:56;20.80;97.00
66257;DHT22;53049;43.446;3.698;2022-10-18T12:16:26;20.80;97.10
66257;DHT22;53049;43.446;3.698;2022-10-18T12:18:58;20.70;96.90
66257;DHT22;53049;43.446;3.698;2022-10-18T12:21:26;20.80;97.30
66257;DHT22;53049;43.446;3.698;2022-10-18T12:24:06;20.70;97.40
66257;DHT22;53049;43.446;3.698;2022-10-18T12:26:35;20.70;97.60
66257;DHT22;53049;43.446;3.698;2022-10-18T12:29:16;20.70;97.70
66257;DHT22;53049;43.446;3.698;2022-10-18T12:31:51;20.70;98.30
66257;DHT22;53049;43.446;3.698;2022-10-18T12:34:53;20.70;98.20
66257;DHT22;53049;43.446;3.698;2022-10-18T12:39:52;20.70;97.70
66257;DHT22;53049;43.446;3.698;2022-10-18T12:42:28;20.70;97.70
66257;DHT22;53049;43.446;3.698;2022-10-18T12:47:38;20.80;98.00
66257;DHT22;53049;43.446;3.698;2022-10-18T12:50:28;20.80;97.70
66257;DHT22;53049;43.446;3.698;2022-10-18T12:55:42;21.00;97.80
66257;DHT22;53049;43.446;3.698;2022-10-18T13:27:37;21.20;97.80
66257;DHT22;53049;43.446;3.698;2022-10-18T13:30:29;21.30;97.90
66257;DHT22;53049;43.446;3.698;2022-10-18T13:35:49;21.20;98.00
66257;DHT22;53049;43.446;3.698;2022-10-18T13:41:03;21.30;98.10
66257;DHT22;53049;43.446;3.698;2022-10-18T13:48:58;21.20;98.20
66257;DHT22;53049;43.446;3.698;2022-10-18T13:54:42;21.20;98.30
66257;DHT22;53049;43.446;3.698;2022-10-18T13:57:18;21.20;98.40
66257;DHT22;53049;43.446;3.698;2022-10-18T14:00:06;21.20;98.50
66257;DHT22;53049;43.446;3.698;2022-10-18T14:02:37;21.20;98.50
66257;DHT22;53049;43.446;3.698;2022-10-18T14:05:35;21.20;98.50
66257;DHT22;53049;43.446;3.698;2022-10-18T14:08:14;21.20;98.60
66257;DHT22;53049;43.446;3.698;2022-10-18T14:13:22;21.20;98.60
66257;DHT22;53049;43.446;3.698;2022-10-18T14:15:52;21.30;98.80
66257;DHT22;53049;43.446;3.698;2022-10-18T14:18:26;21.30;98.70
66257;DHT22;53049;43.446;3.698;2022-10-18T14:21:02;21.30;98.60
66257;DHT22;53049;43.446;3.698;2022-10-18T14:23:35;21.30;98.70
66257;DHT22;53049;43.446;3.698;2022-10-18T14:26:08;21.30;98.80
66257;DHT22;53049;43.446;3.698;2022-10-18T14:28:36;21.30;98.80
66257;DHT22;53049;43.446;3.698;2022-10-18T14:31:04;21.40;98.70
66257;DHT22;53049;43.446;3.698;2022-10-18T14:33:37;21.40;98.70
66257;DHT22;53049;43.446;3.698;2022-10-18T14:38:36;21.30;98.70
66257;DHT22;53049;43.446;3.698;2022-10-18T14:41:23;21.30;98.50
66257;DHT22;53049;43.446;3.698;2022-10-18T14:43:52;21.30;98.70
66257;DHT22;53049;43.446;3.698;2022-10-18T14:46:19;21.20;98.70
66257;DHT22;53049;43.446;3.698;2022-10-18T14:48:56;21.20;98.90
66257;DHT22;53049;43.446;3.698;2022-10-18T14:51:23;21.30;98.80
66257;DHT22;53049;43.446;3.698;2022-10-18T14:53:50;21.30;98.60
66257;DHT22;53049;43.446;3.698;2022-10-18T14:56:31;21.40;98.60
66257;DHT22;53049;43.446;3.698;2022-10-18T14:59:00;21.40;98.80
66257;DHT22;53049;43.446;3.698;2022-10-18T15:01:29;21.30;98.40
66257;DHT22;53049;43.446;3.698;2022-10-18T15:04:01;21.30;98.60
66257;DHT22;53049;43.446;3.698;2022-10-18T15:06:27;21.30;98.80
66257;DHT22;53049;43.446;3.698;2022-10-18T15:08:57;21.30;98.70
66257;DHT22;53049;43.446;3.698;2022-10-18T15:11:24;21.30;98.70
66257;DHT22;53049;43.446;3.698;2022-10-18T15:13:56;21.30;98.80
66257;DHT22;53049;43.446;3.698;2022-10-18T15:16:26;21.30;98.80
66257;DHT22;53049;43.446;3.698;2022-10-18T15:21:30;21.40;98.60
66257;DHT22;53049;43.446;3.698;2022-10-18T15:26:45;21.40;98.70
66257;DHT22;53049;43.446;3.698;2022-10-18T15:29:19;21.40;98.60
66257;DHT22;53049;43.446;3.698;2022-10-18T15:31:47;21.40;98.40
66257;DHT22;53049;43.446;3.698;2022-10-18T15:34:22;21.40;98.50
66257;DHT22;53049;43.446;3.698;2022-10-18T15:36:50;21.20;98.50
66257;DHT22;53049;43.446;3.698;2022-10-18T15:39:24;21.30;98.80
66257;DHT22;53049;43.446;3.698;2022-10-18T15:41:51;21.20;98.70
66257;DHT22;53049;43.446;3.698;2022-10-18T15:44:27;21.20;98.80
66257;DHT22;53049;43.446;3.698;2022-10-18T15:47:15;21.20;99.00
66257;DHT22;53049;43.446;3.698;2022-10-18T15:54:47;21.10;99.10
66257;DHT22;53049;43.446;3.698;2022-10-18T15:57:12;21.10;99.30
66257;DHT22;53049;43.446;3.698;2022-10-18T15:59:53;21.10;99.20
66257;DHT22;53049;43.446;3.698;2022-10-18T16:02:19;21.10;99.30
66257;DHT22;53049;43.446;3.698;2022-10-18T16:04:45;21.00;99.40
66257;DHT22;53049;43.446;3.698;2022-10-18T16:07:12;21.00;99.40
66257;DHT22;53049;43.446;3.698;2022-10-18T16:09:38;21.00;99.30
66257;DHT22;53049;43.446;3.698;2022-10-18T16:12:04;21.00;99.50
66257;DHT22;53049;43.446;3.698;2022-10-18T16:14:30;20.90;99.50
66257;DHT22;53049;43.446;3.698;2022-10-18T16:17:00;20.90;99.60
66257;DHT22;53049;43.446;3.698;2022-10-18T16:19:26;20.90;99.60
66257;DHT22;53049;43.446;3.698;2022-10-18T16:21:52;20.90;99.60
66257;DHT22;53049;43.446;3.698;2022-10-18T16:24:19;20.90;99.80
66257;DHT22;53049;43.446;3.698;2022-10-18T16:26:45;20.90;99.80
66257;DHT22;53049;43.446;3.698;2022-10-18T16:29:16;20.90;99.80
66257;DHT22;53049;43.446;3.698;2022-10-18T16:31:44;20.90;99.80
66257;DHT22;53049;43.446;3.698;2022-10-18T16:34:11;20.80;99.90
66257;DHT22;53049;43.446;3.698;2022-10-18T16:36:39;20.90;99.80
66257;DHT22;53049;43.446;3.698;2022-10-18T16:39:09;20.90;99.80
66257;DHT22;53049;43.446;3.698;2022-10-18T16:41:37;20.80;99.80
66257;DHT22;53049;43.446;3.698;2022-10-18T16:44:02;20.80;99.90
66257;DHT22;53049;43.446;3.698;2022-10-18T16:46:30;20.80;99.90
66257;DHT22;53049;43.446;3.698;2022-10-18T16:48:57;20.80;99.90
66257;DHT22;53049;43.446;3.698;2022-10-18T16:51:23;20.80;99.90
66257;DHT22;53049;43.446;3.698;2022-10-18T16:53:49;20.80;99.90
66257;DHT22;53049;43.446;3.698;2022-10-18T16:56:17;20.80;99.90
66257;DHT22;53049;43.446;3.698;2022-10-18T16:58:44;20.80;99.90
66257;DHT22;53049;43.446;3.698;2022-10-18T17:01:14;20.70;99.90
66257;DHT22;53049;43.446;3.698;2022-10-18T17:03:41;20.70;99.90
66257;DHT22;53049;43.446;3.698;2022-10-18T17:06:22;20.70;99.90
66257;DHT22;53049;43.446;3.698;2022-10-18T17:08:49;20.70;99.90
66257;DHT22;53049;43.446;3.698;2022-10-18T17:11:16;20.70;99.90
66257;DHT22;53049;43.446;3.698;2022-10-18T17:13:42;20.70;99.90
66257;DHT22;53049;43.446;3.698;2022-10-18T17:16:24;20.60;99.90
66257;DHT22;53049;43.446;3.698;2022-10-18T17:18:53;20.60;99.90
66257;DHT22;53049;43.446;3.698;2022-10-18T17:21:19;20.60;99.90
66257;DHT22;53049;43.446;3.698;2022-10-18T17:23:45;20.60;99.90
66257;DHT22;53049;43.446;3.698;2022-10-18T17:26:19;20.60;99.90
66257;DHT22;53049;43.446;3.698;2022-10-18T17:28:45;20.60;99.90
66257;DHT22;53049;43.446;3.698;2022-10-18T17:31:14;20.60;99.90
66257;DHT22;53049;43.446;3.698;2022-10-18T17:33:40;20.50;99.90
66257;DHT22;53049;43.446;3.698;2022-10-18T17:36:06;20.50;99.90
66257;DHT22;53049;43.446;3.698;2022-10-18T17:38:32;20.50;99.90
66257;DHT22;53049;43.446;3.698;2022-10-18T17:40:58;20.50;99.90
66257;DHT22;53049;43.446;3.698;2022-10-18T17:43:24;20.50;99.90
66257;DHT22;53049;43.446;3.698;2022-10-18T17:45:53;20.50;99.90
66257;DHT22;53049;43.446;3.698;2022-10-18T17:48:19;20.50;99.90
66257;DHT22;53049;43.446;3.698;2022-10-18T17:50:45;20.50;99.90
66257;DHT22;53049;43.446;3.698;2022-10-18T17:53:11;20.40;99.90
66257;DHT22;53049;43.446;3.698;2022-10-18T17:55:38;20.50;99.90
66257;DHT22;53049;43.446;3.698;2022-10-18T17:58:04;20.50;99.90
66257;DHT22;53049;43.446;3.698;2022-10-18T18:00:30;20.40;99.90
66257;DHT22;53049;43.446;3.698;2022-10-18T18:02:57;20.40;99.90
66257;DHT22;53049;43.446;3.698;2022-10-18T18:05:22;20.50;99.90
66257;DHT22;53049;43.446;3.698;2022-10-18T18:07:48;20.40;99.90
66257;DHT22;53049;43.446;3.698;2022-10-18T18:10:14;20.50;99.90
66257;DHT22;53049;43.446;3.698;2022-10-18T18:12:41;20.50;99.90
66257;DHT22;53049;43.446;3.698;2022-10-18T18:15:10;20.40;99.90
66257;DHT22;53049;43.446;3.698;2022-10-18T18:17:35;20.40;99.90
66257;DHT22;53049;43.446;3.698;2022-10-18T18:20:01;20.30;99.90
66257;DHT22;53049;43.446;3.698;2022-10-18T18:22:27;20.40;99.90
66257;DHT22;53049;43.446;3.698;2022-10-18T18:24:53;20.40;99.90
66257;DHT22;53049;43.446;3.698;2022-10-18T18:27:18;20.30;99.90
66257;DHT22;53049;43.446;3.698;2022-10-18T18:29:44;20.30;99.90
66257;DHT22;53049;43.446;3.698;2022-10-18T18:32:10;20.30;99.90
66257;DHT22;53049;43.446;3.698;2022-10-18T18:34:35;20.30;99.90
66257;DHT22;53049;43.446;3.698;2022-10-18T18:37:02;20.30;99.90
66257;DHT22;53049;43.446;3.698;2022-10-18T18:39:28;20.30;99.90
66257;DHT22;53049;43.446;3.698;2022-10-18T18:41:54;20.40;99.90
66257;DHT22;53049;43.446;3.698;2022-10-18T18:44:20;20.30;99.90
66257;DHT22;53049;43.446;3.698;2022-10-18T18:46:47;20.40;99.90
66257;DHT22;53049;43.446;3.698;2022-10-18T18:49:13;20.40;99.90
66257;DHT22;53049;43.446;3.698;2022-10-18T18:51:39;20.40;99.90
66257;DHT22;53049;43.446;3.698;2022-10-18T18:54:07;20.40;99.90
66257;DHT22;53049;43.446;3.698;2022-10-18T18:56:33;20.40;99.90
66257;DHT22;53049;43.446;3.698;2022-10-18T18:58:59;20.40;99.90
66257;DHT22;53049;43.446;3.698;2022-10-18T19:01:28;20.40;99.90
66257;DHT22;53049;43.446;3.698;2022-10-18T19:03:55;20.40;99.90
66257;DHT22;53049;43.446;3.698;2022-10-18T19:08:48;20.40;99.90
66257;DHT22;53049;43.446;3.698;2022-10-18T19:11:19;20.40;99.90
66257;DHT22;53049;43.446;3.698;2022-10-18T19:13:46;20.30;99.90
66257;DHT22;53049;43.446;3.698;2022-10-18T19:16:28;20.30;99.90
66257;DHT22;53049;43.446;3.698;2022-10-18T19:21:28;20.30;99.90
66257;DHT22;53049;43.446;3.698;2022-10-18T19:23:55;20.30;99.90
66257;DHT22;53049;43.446;3.698;2022-10-18T19:28:53;20.30;99.90
66257;DHT22;53049;43.446;3.698;2022-10-18T19:31:19;20.30;99.90
66257;DHT22;53049;43.446;3.698;2022-10-18T19:33:44;20.30;99.90
66257;DHT22;53049;43.446;3.698;2022-10-18T19:36:10;20.30;99.90
66257;DHT22;53049;43.446;3.698;2022-10-18T19:38:36;20.40;99.90
66257;DHT22;53049;43.446;3.698;2022-10-18T19:41:01;20.40;99.90
66257;DHT22;53049;43.446;3.698;2022-10-18T19:43:27;20.30;99.90
66257;DHT22;53049;43.446;3.698;2022-10-18T19:45:53;20.30;99.90
66257;DHT22;53049;43.446;3.698;2022-10-18T19:48:19;20.30;99.90
66257;DHT22;53049;43.446;3.698;2022-10-18T19:50:44;20.40;99.90
66257;DHT22;53049;43.446;3.698;2022-10-18T19:53:10;20.40;99.90
66257;DHT22;53049;43.446;3.698;2022-10-18T19:55:36;20.40;99.90
66257;DHT22;53049;43.446;3.698;2022-10-18T19:58:01;20.30;99.90
66257;DHT22;53049;43.446;3.698;2022-10-18T20:00:27;20.30;99.90
66257;DHT22;53049;43.446;3.698;2022-10-18T20:02:53;20.30;99.90
66257;DHT22;53049;43.446;3.698;2022-10-18T20:05:18;20.30;99.90
66257;DHT22;53049;43.446;3.698;2022-10-18T20:07:44;20.30;99.90
66257;DHT22;53049;43.446;3.698;2022-10-18T20:10:11;20.30;99.90
66257;DHT22;53049;43.446;3.698;2022-10-18T20:12:37;20.30;99.90
66257;DHT22;53049;43.446;3.698;2022-10-18T20:15:04;20.30;99.90
66257;DHT22;53049;43.446;3.698;2022-10-18T20:17:30;20.30;99.90
66257;DHT22;53049;43.446;3.698;2022-10-18T20:19:56;20.30;99.90
66257;DHT22;53049;43.446;3.698;2022-10-18T20:22:22;20.30;99.90
66257;DHT22;53049;43.446;3.698;2022-10-18T20:24:48;20.30;99.90
66257;DHT22;53049;43.446;3.698;2022-10-18T20:27:13;20.30;99.90
66257;DHT22;53049;43.446;3.698;2022-10-18T20:29:39;20.30;99.90
66257;DHT22;53049;43.446;3.698;2022-10-18T20:32:04;20.30;99.90
66257;DHT22;53049;43.446;3.698;2022-10-18T20:34:30;20.30;99.90
66257;DHT22;53049;43.446;3.698;2022-10-18T20:36:56;20.30;99.90
66257;DHT22;53049;43.446;3.698;2022-10-18T20:39:22;20.30;99.90
66257;DHT22;53049;43.446;3.698;2022-10-18T20:41:47;20.30;99.90
66257;DHT22;53049;43.446;3.698;2022-10-18T20:44:15;20.30;99.90
66257;DHT22;53049;43.446;3.698;2022-10-18T20:46:42;20.30;99.90
66257;DHT22;53049;43.446;3.698;2022-10-18T20:49:11;20.30;99.90
66257;DHT22;53049;43.446;3.698;2022-10-18T20:51:37;20.30;99.90
66257;DHT22;53049;43.446;3.698;2022-10-18T20:54:04;20.30;99.90
66257;DHT22;53049;43.446;3.698;2022-10-18T20:56:30;20.20;99.90
66257;DHT22;53049;43.446;3.698;2022-10-18T20:58:58;20.30;99.90
66257;DHT22;53049;43.446;3.698;2022-10-18T21:01:27;20.30;99.90
66257;DHT22;53049;43.446;3.698;2022-10-18T21:03:55;20.30;99.90
66257;DHT22;53049;43.446;3.698;2022-10-18T21:06:31;20.30;99.90
66257;DHT22;53049;43.446;3.698;2022-10-18T21:08:59;20.30;99.90
66257;DHT22;53049;43.446;3.698;2022-10-18T21:11:28;20.30;99.90
66257;DHT22;53049;43.446;3.698;2022-10-18T21:13:59;20.30;99.90
66257;DHT22;53049;43.446;3.698;2022-10-18T21:16:27;20.20;99.90
66257;DHT22;53049;43.446;3.698;2022-10-18T21:18:53;20.20;99.90
66257;DHT22;53049;43.446;3.698;2022-10-18T21:21:22;20.20;99.90
66257;DHT22;53049;43.446;3.698;2022-10-18T21:23:49;20.20;99.90
66257;DHT22;53049;43.446;3.698;2022-10-18T21:26:18;20.20;99.90
66257;DHT22;53049;43.446;3.698;2022-10-18T21:28:44;20.20;99.90
66257;DHT22;53049;43.446;3.698;2022-10-18T21:31:16;20.20;99.90
66257;DHT22;53049;43.446;3.698;2022-10-18T21:33:43;20.20;99.90
66257;DHT22;53049;43.446;3.698;2022-10-18T21:36:10;20.20;99.90
66257;DHT22;53049;43.446;3.698;2022-10-18T21:38:36;20.10;99.90
66257;DHT22;53049;43.446;3.698;2022-10-18T21:41:10;20.10;99.90
66257;DHT22;53049;43.446;3.698;2022-10-18T21:43:41;20.10;99.90
66257;DHT22;53049;43.446;3.698;2022-10-18T21:46:07;20.10;99.90
66257;DHT22;53049;43.446;3.698;2022-10-18T21:48:35;20.10;99.90
66257;DHT22;53049;43.446;3.698;2022-10-18T21:51:02;20.10;99.90
66257;DHT22;53049;43.446;3.698;2022-10-18T21:53:28;20.10;99.90
66257;DHT22;53049;43.446;3.698;2022-10-18T21:55:54;20.10;99.90
66257;DHT22;53049;43.446;3.698;2022-10-18T21:58:20;20.10;99.90
66257;DHT22;53049;43.446;3.698;2022-10-18T22:00:45;20.10;99.90
66257;DHT22;53049;43.446;3.698;2022-10-18T22:03:12;20.10;99.90
66257;DHT22;53049;43.446;3.698;2022-10-18T22:05:38;20.10;99.90
66257;DHT22;53049;43.446;3.698;2022-10-18T22:08:05;20.10;99.90
66257;DHT22;53049;43.446;3.698;2022-10-18T22:10:32;20.00;99.90
66257;DHT22;53049;43.446;3.698;2022-10-18T22:12:58;20.00;99.90
66257;DHT22;53049;43.446;3.698;2022-10-18T22:15:24;20.00;99.90
66257;DHT22;53049;43.446;3.698;2022-10-18T22:17:50;20.00;99.90
66257;DHT22;53049;43.446;3.698;2022-10-18T22:20:15;20.10;99.90
66257;DHT22;53049;43.446;3.698;2022-10-18T22:22:41;20.10;99.90
66257;DHT22;53049;43.446;3.698;2022-10-18T22:25:07;20.10;99.90
66257;DHT22;53049;43.446;3.698;2022-10-18T22:27:33;20.10;99.90
66257;DHT22;53049;43.446;3.698;2022-10-18T22:29:59;20.00;99.90
66257;DHT22;53049;43.446;3.698;2022-10-18T22:32:24;20.00;99.90
66257;DHT22;53049;43.446;3.698;2022-10-18T22:34:50;20.00;99.90
66257;DHT22;53049;43.446;3.698;2022-10-18T22:37:16;20.00;99.90
66257;DHT22;53049;43.446;3.698;2022-10-18T22:39:41;20.00;99.90
66257;DHT22;53049;43.446;3.698;2022-10-18T22:42:07;20.00;99.90
66257;DHT22;53049;43.446;3.698;2022-10-18T22:44:33;20.00;99.90
66257;DHT22;53049;43.446;3.698;2022-10-18T22:47:00;20.00;99.90
66257;DHT22;53049;43.446;3.698;2022-10-18T22:49:26;20.00;99.90
66257;DHT22;53049;43.446;3.698;2022-10-18T22:51:51;19.90;99.90
66257;DHT22;53049;43.446;3.698;2022-10-18T22:54:17;20.00;99.90
66257;DHT22;53049;43.446;3.698;2022-10-18T22:56:43;20.00;99.90
66257;DHT22;53049;43.446;3.698;2022-10-18T22:59:09;19.90;99.90
66257;DHT22;53049;43.446;3.698;2022-10-18T23:01:35;20.00;99.90
66257;DHT22;53049;43.446;3.698;2022-10-18T23:04:01;20.00;99.90
66257;DHT22;53049;43.446;3.698;2022-10-18T23:06:29;20.00;99.90
66257;DHT22;53049;43.446;3.698;2022-10-18T23:08:56;20.00;99.90
66257;DHT22;53049;43.446;3.698;2022-10-18T23:11:23;20.00;99.90
66257;DHT22;53049;43.446;3.698;2022-10-18T23:13:49;20.00;99.90
66257;DHT22;53049;43.446;3.698;2022-10-18T23:16:16;20.00;99.90
66257;DHT22;53049;43.446;3.698;2022-10-18T23:18:42;20.00;99.90
66257;DHT22;53049;43.446;3.698;2022-10-18T23:21:09;20.00;99.90
66257;DHT22;53049;43.446;3.698;2022-10-18T23:23:37;20.00;99.90
66257;DHT22;53049;43.446;3.698;2022-10-18T23:26:05;20.00;99.90
66257;DHT22;53049;43.446;3.698;2022-10-18T23:28:42;20.00;99.90
66257;DHT22;53049;43.446;3.698;2022-10-18T23:31:14;20.00;99.90
66257;DHT22;53049;43.446;3.698;2022-10-18T23:33:42;20.00;99.90
66257;DHT22;53049;43.446;3.698;2022-10-18T23:36:08;20.00;99.90
66257;DHT22;53049;43.446;3.698;2022-10-18T23:38:35;20.10;99.90
66257;DHT22;53049;43.446;3.698;2022-10-18T23:41:01;20.10;99.90
66257;DHT22;53049;43.446;3.698;2022-10-18T23:43:26;20.10;99.90
66257;DHT22;53049;43.446;3.698;2022-10-18T23:45:52;20.10;99.90
66257;DHT22;53049;43.446;3.698;2022-10-18T23:48:18;20.10;99.90
66257;DHT22;53049;43.446;3.698;2022-10-18T23:50:44;20.10;99.90
66257;DHT22;53049;43.446;3.698;2022-10-18T23:53:09;20.10;99.90
66257;DHT22;53049;43.446;3.698;2022-10-18T23:55:35;20.10;99.90
66257;DHT22;53049;43.446;3.698;2022-10-18T23:58:01;20.10;99.90
